首页
METAR-TAF:

METAR-TAF

机场 :

霍尼亞拉國際機場

霍尼亚拉, 瓜达尔卡纳尔岛, 所罗门群岛

纬度: 09-25S, 经度: 160-03E, 海拔: 8米

当前天气观测

该预报发布于58分钟前的00:00 UTC
风速2节,风向东转东南
温度 31°C
湿度 71%
气压 1012 hPa
能见度10公里或以上
少量云层高于2000英尺

METAR: AGGH 210000Z 11002KT 9999 FEW020 31/25 Q1012

时间: 11:58 (00:58 UTC)

预报

该预报发布于2小时和8分钟前的22:50 UTC
预报有效从21日的 00点(UTC)到 21日的 24点(UTC)
风速12节,风向东转东北
能見度: 1013
散云层高于1900英尺
散云层高于3000英尺

TAF: AGGH 202250Z 2100/2124 07012KT 9999 SCT019 SCT030 T 30 31 29 27 Q 1013 1011 1011 1013

超过4000个机场的气象观测和天气预报(METAR&TAF报告)。

可查询的气象台以黄色和红色小点在地图上表示。

将鼠标移到小点上方,可查看气象台名称。

然后点击查看天气观测和预报。

如需切换地图:点击带黑十字的绿色按钮放大地图;点击带横线的绿色按钮缩小地图;或者点击绿色箭头查看邻近地区的地图。


METAR-TAF: